sensor_id;sensor_type;location;lat;lon;timestamp;P1;durP1;ratioP1;P2;durP2;ratioP2
33912;SDS011;20200;52.084;5.224;2023-04-01T00:01:25;93.9;;;41.0;;
33912;SDS011;20200;52.084;5.224;2023-04-01T00:03:01;91.5;;;39.1;;
33912;SDS011;20200;52.084;5.224;2023-04-01T00:06:14;86.6;;;38.6;;
33912;SDS011;20200;52.084;5.224;2023-04-01T00:07:53;81.91;;;35.5;;
33912;SDS011;20200;52.084;5.224;2023-04-01T00:09:29;79.61;;;34.31;;
33912;SDS011;20200;52.084;5.224;2023-04-01T00:11:05;87.1;;;36.0;;
33912;SDS011;20200;52.084;5.224;2023-04-01T00:14:18;77.5;;;34.9;;
33912;SDS011;20200;52.084;5.224;2023-04-01T00:15:55;71.3;;;32.9;;
33912;SDS011;20200;52.084;5.224;2023-04-01T00:17:32;75.91;;;34.4;;
33912;SDS011;20200;52.084;5.224;2023-04-01T00:20:44;79.41;;;39.0;;
33912;SDS011;20200;52.084;5.224;2023-04-01T00:22:22;67.1;;;32.0;;
33912;SDS011;20200;52.084;5.224;2023-04-01T00:23:59;67.3;;;33.4;;
33912;SDS011;20200;52.084;5.224;2023-04-01T00:25:35;82.2;;;40.81;;
33912;SDS011;20200;52.084;5.224;2023-04-01T00:28:48;75.2;;;37.6;;
33912;SDS011;20200;52.084;5.224;2023-04-01T00:30:24;69.91;;;35.6;;
33912;SDS011;20200;52.084;5.224;2023-04-01T00:32:01;83.7;;;38.21;;
33912;SDS011;20200;52.084;5.224;2023-04-01T00:35:14;70.91;;;33.0;;
33912;SDS011;20200;52.084;5.224;2023-04-01T00:36:51;64.41;;;30.3;;
33912;SDS011;20200;52.084;5.224;2023-04-01T00:38:28;53.3;;;26.3;;
33912;SDS011;20200;52.084;5.224;2023-04-01T00:42:01;56.6;;;27.3;;
33912;SDS011;20200;52.084;5.224;2023-04-01T00:43:38;51.9;;;24.8;;
33912;SDS011;20200;52.084;5.224;2023-04-01T00:45:24;50.6;;;23.7;;
33912;SDS011;20200;52.084;5.224;2023-04-01T00:47:05;53.7;;;27.2;;
33912;SDS011;20200;52.084;5.224;2023-04-01T00:48:41;49.4;;;26.2;;
33912;SDS011;20200;52.084;5.224;2023-04-01T00:52:01;62.5;;;30.1;;
33912;SDS011;20200;52.084;5.224;2023-04-01T00:53:41;63.9;;;29.5;;
33912;SDS011;20200;52.084;5.224;2023-04-01T00:55:21;65.91;;;31.4;;
33912;SDS011;20200;52.084;5.224;2023-04-01T00:56:59;65.1;;;31.5;;
33912;SDS011;20200;52.084;5.224;2023-04-01T01:00:20;81.11;;;37.5;;
33912;SDS011;20200;52.084;5.224;2023-04-01T01:01:56;94.9;;;41.4;;
33912;SDS011;20200;52.084;5.224;2023-04-01T01:03:32;89.2;;;39.31;;
33912;SDS011;20200;52.084;5.224;2023-04-01T01:06:49;81.91;;;38.31;;
33912;SDS011;20200;52.084;5.224;2023-04-01T01:08:38;70.7;;;35.0;;
33912;SDS011;20200;52.084;5.224;2023-04-01T01:10:39;82.5;;;38.5;;
33912;SDS011;20200;52.084;5.224;2023-04-01T01:12:17;83.7;;;37.4;;
33912;SDS011;20200;52.084;5.224;2023-04-01T01:13:56;65.91;;;31.0;;
33912;SDS011;20200;52.084;5.224;2023-04-01T01:17:25;74.2;;;35.81;;
33912;SDS011;20200;52.084;5.224;2023-04-01T01:19:19;50.8;;;26.1;;
33912;SDS011;20200;52.084;5.224;2023-04-01T01:21:52;61.3;;;32.3;;
33912;SDS011;20200;52.084;5.224;2023-04-01T01:23:46;61.3;;;32.3;;
33912;SDS011;20200;52.084;5.224;2023-04-01T01:26:22;66.6;;;34.31;;
33912;SDS011;20200;52.084;5.224;2023-04-01T01:28:37;47.8;;;26.0;;
33912;SDS011;20200;52.084;5.224;2023-04-01T01:30:34;49.7;;;25.9;;
33912;SDS011;20200;52.084;5.224;2023-04-01T01:35:14;47.1;;;26.9;;
33912;SDS011;20200;52.084;5.224;2023-04-01T01:36:59;41.8;;;25.4;;
33912;SDS011;20200;52.084;5.224;2023-04-01T01:40:19;44.7;;;25.5;;
33912;SDS011;20200;52.084;5.224;2023-04-01T01:41:56;37.6;;;21.6;;
33912;SDS011;20200;52.084;5.224;2023-04-01T01:43:36;45.1;;;24.6;;
33912;SDS011;20200;52.084;5.224;2023-04-01T01:45:16;34.81;;;19.91;;
33912;SDS011;20200;52.084;5.224;2023-04-01T01:48:36;31.5;;;18.2;;
33912;SDS011;20200;52.084;5.224;2023-04-01T01:50:12;26.4;;;16.8;;
33912;SDS011;20200;52.084;5.224;2023-04-01T01:51:52;26.7;;;15.0;;
33912;SDS011;20200;52.084;5.224;2023-04-01T01:53:28;26.0;;;15.4;;
33912;SDS011;20200;52.084;5.224;2023-04-01T01:57:02;23.8;;;14.5;;
33912;SDS011;20200;52.084;5.224;2023-04-01T01:58:42;32.21;;;17.8;;
33912;SDS011;20200;52.084;5.224;2023-04-01T02:00:22;30.3;;;18.3;;
33912;SDS011;20200;52.084;5.224;2023-04-01T02:01:58;36.31;;;18.5;;
33912;SDS011;20200;52.084;5.224;2023-04-01T02:05:15;30.6;;;17.5;;
33912;SDS011;20200;52.084;5.224;2023-04-01T02:06:55;29.5;;;17.41;;
33912;SDS011;20200;52.084;5.224;2023-04-01T02:08:38;34.1;;;18.8;;
33912;SDS011;20200;52.084;5.224;2023-04-01T02:10:18;37.4;;;20.3;;
33912;SDS011;20200;52.084;5.224;2023-04-01T02:13:40;35.81;;;20.5;;
33912;SDS011;20200;52.084;5.224;2023-04-01T02:15:22;30.9;;;17.2;;
33912;SDS011;20200;52.084;5.224;2023-04-01T02:17:04;42.3;;;22.7;;
33912;SDS011;20200;52.084;5.224;2023-04-01T02:18:44;54.3;;;26.9;;
33912;SDS011;20200;52.084;5.224;2023-04-01T02:22:05;45.2;;;23.3;;
33912;SDS011;20200;52.084;5.224;2023-04-01T02:23:46;44.6;;;24.1;;
33912;SDS011;20200;52.084;5.224;2023-04-01T02:25:23;46.2;;;23.4;;
33912;SDS011;20200;52.084;5.224;2023-04-01T02:27:03;40.81;;;22.2;;
33912;SDS011;20200;52.084;5.224;2023-04-01T02:30:18;44.2;;;24.4;;
33912;SDS011;20200;52.084;5.224;2023-04-01T02:31:56;52.9;;;29.1;;
33912;SDS011;20200;52.084;5.224;2023-04-01T02:33:34;59.9;;;32.9;;
33912;SDS011;20200;52.084;5.224;2023-04-01T02:36:49;56.2;;;31.0;;
33912;SDS011;20200;52.084;5.224;2023-04-01T02:38:26;49.6;;;28.7;;
33912;SDS011;20200;52.084;5.224;2023-04-01T02:40:03;50.2;;;28.1;;
33912;SDS011;20200;52.084;5.224;2023-04-01T02:41:43;47.3;;;25.5;;
33912;SDS011;20200;52.084;5.224;2023-04-01T02:44:57;43.6;;;26.2;;
33912;SDS011;20200;52.084;5.224;2023-04-01T02:46:33;50.6;;;27.4;;
33912;SDS011;20200;52.084;5.224;2023-04-01T02:48:09;40.5;;;22.2;;
33912;SDS011;20200;52.084;5.224;2023-04-01T02:51:22;42.1;;;24.4;;
33912;SDS011;20200;52.084;5.224;2023-04-01T02:52:58;46.4;;;26.7;;
33912;SDS011;20200;52.084;5.224;2023-04-01T02:54:34;55.6;;;27.6;;
33912;SDS011;20200;52.084;5.224;2023-04-01T02:56:11;40.31;;;22.0;;
33912;SDS011;20200;52.084;5.224;2023-04-01T02:59:24;38.71;;;22.5;;
33912;SDS011;20200;52.084;5.224;2023-04-01T03:01:00;33.6;;;18.0;;
33912;SDS011;20200;52.084;5.224;2023-04-01T03:02:36;29.8;;;18.2;;
33912;SDS011;20200;52.084;5.224;2023-04-01T03:05:49;22.5;;;13.9;;
33912;SDS011;20200;52.084;5.224;2023-04-01T03:07:25;21.2;;;12.9;;
33912;SDS011;20200;52.084;5.224;2023-04-01T03:09:01;35.81;;;20.7;;
33912;SDS011;20200;52.084;5.224;2023-04-01T03:12:14;37.71;;;20.2;;
33912;SDS011;20200;52.084;5.224;2023-04-01T03:13:50;26.6;;;16.0;;
33912;SDS011;20200;52.084;5.224;2023-04-01T03:15:26;16.11;;;12.1;;
33912;SDS011;20200;52.084;5.224;2023-04-01T03:18:38;22.0;;;14.0;;
33912;SDS011;20200;52.084;5.224;2023-04-01T03:20:14;22.9;;;14.0;;
33912;SDS011;20200;52.084;5.224;2023-04-01T03:21:51;19.3;;;13.6;;
33912;SDS011;20200;52.084;5.224;2023-04-01T03:23:27;25.4;;;16.9;;
33912;SDS011;20200;52.084;5.224;2023-04-01T03:26:42;34.4;;;20.0;;
33912;SDS011;20200;52.084;5.224;2023-04-01T03:28:18;23.1;;;15.5;;
33912;SDS011;20200;52.084;5.224;2023-04-01T03:29:54;19.8;;;13.7;;
33912;SDS011;20200;52.084;5.224;2023-04-01T03:33:06;20.11;;;13.9;;
33912;SDS011;20200;52.084;5.224;2023-04-01T03:34:43;23.6;;;15.2;;
33912;SDS011;20200;52.084;5.224;2023-04-01T03:36:19;24.0;;;16.0;;
33912;SDS011;20200;52.084;5.224;2023-04-01T03:39:31;21.8;;;16.0;;
33912;SDS011;20200;52.084;5.224;2023-04-01T03:41:07;23.0;;;16.5;;
33912;SDS011;20200;52.084;5.224;2023-04-01T03:42:47;26.3;;;17.8;;
33912;SDS011;20200;52.084;5.224;2023-04-01T03:44:24;26.3;;;17.8;;
33912;SDS011;20200;52.084;5.224;2023-04-01T03:47:37;19.5;;;14.6;;
33912;SDS011;20200;52.084;5.224;2023-04-01T03:49:13;18.5;;;14.3;;
33912;SDS011;20200;52.084;5.224;2023-04-01T03:50:49;18.91;;;14.8;;
33912;SDS011;20200;52.084;5.224;2023-04-01T03:54:01;21.0;;;15.8;;
33912;SDS011;20200;52.084;5.224;2023-04-01T03:55:37;17.91;;;13.9;;
33912;SDS011;20200;52.084;5.224;2023-04-01T03:57:14;21.5;;;16.3;;
33912;SDS011;20200;52.084;5.224;2023-04-01T04:00:27;21.1;;;16.3;;
33912;SDS011;20200;52.084;5.224;2023-04-01T04:02:04;18.5;;;15.5;;
33912;SDS011;20200;52.084;5.224;2023-04-01T04:03:40;20.7;;;16.8;;
33912;SDS011;20200;52.084;5.224;2023-04-01T04:05:16;20.0;;;16.11;;
33912;SDS011;20200;52.084;5.224;2023-04-01T04:08:29;20.8;;;16.2;;
33912;SDS011;20200;52.084;5.224;2023-04-01T04:10:06;22.2;;;17.8;;
33912;SDS011;20200;52.084;5.224;2023-04-01T04:11:42;21.1;;;17.5;;
33912;SDS011;20200;52.084;5.224;2023-04-01T04:14:55;24.4;;;18.61;;
33912;SDS011;20200;52.084;5.224;2023-04-01T04:16:34;22.0;;;17.41;;
33912;SDS011;20200;52.084;5.224;2023-04-01T04:18:11;23.0;;;18.61;;
33912;SDS011;20200;52.084;5.224;2023-04-01T04:21:23;26.7;;;19.91;;
33912;SDS011;20200;52.084;5.224;2023-04-01T04:22:59;26.2;;;19.0;;
33912;SDS011;20200;52.084;5.224;2023-04-01T04:24:36;25.9;;;19.3;;
33912;SDS011;20200;52.084;5.224;2023-04-01T04:26:13;27.8;;;20.3;;
33912;SDS011;20200;52.084;5.224;2023-04-01T04:29:27;26.6;;;17.91;;
33912;SDS011;20200;52.084;5.224;2023-04-01T04:31:03;26.4;;;19.11;;
33912;SDS011;20200;52.084;5.224;2023-04-01T04:32:40;25.8;;;18.11;;
33912;SDS011;20200;52.084;5.224;2023-04-01T04:35:54;20.9;;;16.4;;
33912;SDS011;20200;52.084;5.224;2023-04-01T04:37:31;19.41;;;15.3;;
33912;SDS011;20200;52.084;5.224;2023-04-01T04:39:08;20.7;;;15.6;;
33912;SDS011;20200;52.084;5.224;2023-04-01T04:42:21;20.0;;;14.1;;
33912;SDS011;20200;52.084;5.224;2023-04-01T04:43:57;18.2;;;13.1;;
33912;SDS011;20200;52.084;5.224;2023-04-01T04:45:33;19.2;;;13.2;;
33912;SDS011;20200;52.084;5.224;2023-04-01T04:47:09;17.91;;;12.6;;
33912;SDS011;20200;52.084;5.224;2023-04-01T04:50:22;18.3;;;12.9;;
33912;SDS011;20200;52.084;5.224;2023-04-01T04:51:59;17.5;;;12.9;;
33912;SDS011;20200;52.084;5.224;2023-04-01T04:53:35;17.61;;;13.4;;
33912;SDS011;20200;52.084;5.224;2023-04-01T04:56:48;17.0;;;12.7;;
33912;SDS011;20200;52.084;5.224;2023-04-01T04:58:27;17.3;;;13.2;;
33912;SDS011;20200;52.084;5.224;2023-04-01T05:00:03;15.4;;;12.5;;
33912;SDS011;20200;52.084;5.224;2023-04-01T05:03:17;18.3;;;13.3;;
33912;SDS011;20200;52.084;5.224;2023-04-01T05:04:53;15.4;;;12.7;;
33912;SDS011;20200;52.084;5.224;2023-04-01T05:06:29;17.91;;;13.9;;
33912;SDS011;20200;52.084;5.224;2023-04-01T05:08:05;15.4;;;12.8;;
33912;SDS011;20200;52.084;5.224;2023-04-01T05:11:18;16.5;;;14.1;;
33912;SDS011;20200;52.084;5.224;2023-04-01T05:12:55;16.8;;;13.8;;
33912;SDS011;20200;52.084;5.224;2023-04-01T05:14:30;17.8;;;14.7;;
33912;SDS011;20200;52.084;5.224;2023-04-01T05:17:44;16.8;;;14.1;;
33912;SDS011;20200;52.084;5.224;2023-04-01T05:19:20;19.2;;;14.9;;
33912;SDS011;20200;52.084;5.224;2023-04-01T05:20:56;20.0;;;16.4;;
33912;SDS011;20200;52.084;5.224;2023-04-01T05:24:08;22.7;;;17.91;;
33912;SDS011;20200;52.084;5.224;2023-04-01T05:25:44;19.41;;;16.8;;
33912;SDS011;20200;52.084;5.224;2023-04-01T05:27:19;23.1;;;18.0;;
33912;SDS011;20200;52.084;5.224;2023-04-01T05:28:55;23.8;;;18.91;;
33912;SDS011;20200;52.084;5.224;2023-04-01T05:32:07;23.8;;;18.91;;
33912;SDS011;20200;52.084;5.224;2023-04-01T05:33:43;22.3;;;18.7;;
33912;SDS011;20200;52.084;5.224;2023-04-01T05:35:19;25.1;;;19.8;;
33912;SDS011;20200;52.084;5.224;2023-04-01T05:38:31;24.1;;;20.2;;
33912;SDS011;20200;52.084;5.224;2023-04-01T05:40:08;23.4;;;19.61;;
33912;SDS011;20200;52.084;5.224;2023-04-01T05:41:45;23.9;;;21.1;;
33912;SDS011;20200;52.084;5.224;2023-04-01T05:44:57;26.5;;;21.4;;
33912;SDS011;20200;52.084;5.224;2023-04-01T05:46:33;23.1;;;20.2;;
33912;SDS011;20200;52.084;5.224;2023-04-01T05:48:09;26.1;;;21.6;;
33912;SDS011;20200;52.084;5.224;2023-04-01T05:51:21;25.3;;;21.1;;
33912;SDS011;20200;52.084;5.224;2023-04-01T05:52:58;23.8;;;21.1;;
33912;SDS011;20200;52.084;5.224;2023-04-01T05:54:35;28.1;;;23.3;;
33912;SDS011;20200;52.084;5.224;2023-04-01T05:56:11;25.1;;;21.6;;
33912;SDS011;20200;52.084;5.224;2023-04-01T05:59:23;27.7;;;22.3;;
33912;SDS011;20200;52.084;5.224;2023-04-01T06:01:00;27.2;;;23.5;;
33912;SDS011;20200;52.084;5.224;2023-04-01T06:02:37;28.4;;;23.8;;
33912;SDS011;20200;52.084;5.224;2023-04-01T06:05:51;27.6;;;23.8;;
33912;SDS011;20200;52.084;5.224;2023-04-01T06:07:28;30.9;;;24.2;;
33912;SDS011;20200;52.084;5.224;2023-04-01T06:09:07;31.1;;;24.4;;
33912;SDS011;20200;52.084;5.224;2023-04-01T06:10:53;29.8;;;24.4;;
33912;SDS011;20200;52.084;5.224;2023-04-01T06:14:39;30.6;;;24.9;;
33912;SDS011;20200;52.084;5.224;2023-04-01T06:16:29;28.5;;;24.2;;
33912;SDS011;20200;52.084;5.224;2023-04-01T06:18:26;28.6;;;23.5;;
33912;SDS011;20200;52.084;5.224;2023-04-01T06:21:04;32.0;;;24.7;;
33912;SDS011;20200;52.084;5.224;2023-04-01T06:23:13;29.2;;;23.7;;
33912;SDS011;20200;52.084;5.224;2023-04-01T06:25:18;26.8;;;22.9;;
33912;SDS011;20200;52.084;5.224;2023-04-01T06:27:07;28.1;;;22.7;;
33912;SDS011;20200;52.084;5.224;2023-04-01T06:29:00;28.5;;;22.5;;
33912;SDS011;20200;52.084;5.224;2023-04-01T06:31:09;24.5;;;21.0;;
33912;SDS011;20200;52.084;5.224;2023-04-01T06:32:58;24.9;;;21.3;;
33912;SDS011;20200;52.084;5.224;2023-04-01T06:35:45;26.8;;;20.7;;
33912;SDS011;20200;52.084;5.224;2023-04-01T06:37:58;25.9;;;20.9;;
33912;SDS011;20200;52.084;5.224;2023-04-01T06:41:11;28.1;;;20.3;;
33912;SDS011;20200;52.084;5.224;2023-04-01T06:44:14;25.6;;;19.5;;
33912;SDS011;20200;52.084;5.224;2023-04-01T06:46:00;25.5;;;19.2;;
33912;SDS011;20200;52.084;5.224;2023-04-01T06:47:48;27.0;;;20.0;;
33912;SDS011;20200;52.084;5.224;2023-04-01T06:49:41;24.2;;;18.61;;
33912;SDS011;20200;52.084;5.224;2023-04-01T06:51:31;24.6;;;18.3;;
33912;SDS011;20200;52.084;5.224;2023-04-01T06:53:21;22.7;;;17.3;;
33912;SDS011;20200;52.084;5.224;2023-04-01T06:55:13;23.8;;;18.2;;
33912;SDS011;20200;52.084;5.224;2023-04-01T06:57:02;24.7;;;17.7;;
33912;SDS011;20200;52.084;5.224;2023-04-01T06:58:57;22.5;;;16.9;;
33912;SDS011;20200;52.084;5.224;2023-04-01T07:02:22;22.9;;;17.41;;
33912;SDS011;20200;52.084;5.224;2023-04-01T07:04:06;25.0;;;18.0;;
33912;SDS011;20200;52.084;5.224;2023-04-01T07:05:49;22.6;;;16.0;;
33912;SDS011;20200;52.084;5.224;2023-04-01T07:07:28;22.0;;;16.8;;
33912;SDS011;20200;52.084;5.224;2023-04-01T07:10:53;24.1;;;17.61;;
33912;SDS011;20200;52.084;5.224;2023-04-01T07:12:36;24.3;;;17.8;;
33912;SDS011;20200;52.084;5.224;2023-04-01T07:14:20;24.7;;;17.91;;
33912;SDS011;20200;52.084;5.224;2023-04-01T07:16:05;24.3;;;18.61;;
33912;SDS011;20200;52.084;5.224;2023-04-01T07:17:51;26.0;;;20.2;;
33912;SDS011;20200;52.084;5.224;2023-04-01T07:21:20;31.1;;;21.5;;
33912;SDS011;20200;52.084;5.224;2023-04-01T07:23:02;28.9;;;20.7;;
33912;SDS011;20200;52.084;5.224;2023-04-01T07:24:41;29.6;;;21.3;;
33912;SDS011;20200;52.084;5.224;2023-04-01T07:26:21;32.6;;;21.9;;
33912;SDS011;20200;52.084;5.224;2023-04-01T07:29:39;29.9;;;21.8;;
33912;SDS011;20200;52.084;5.224;2023-04-01T07:31:20;27.9;;;22.2;;
33912;SDS011;20200;52.084;5.224;2023-04-01T07:33:08;28.4;;;20.9;;
33912;SDS011;20200;52.084;5.224;2023-04-01T07:34:56;31.1;;;21.4;;
33912;SDS011;20200;52.084;5.224;2023-04-01T07:36:48;28.2;;;20.8;;
33912;SDS011;20200;52.084;5.224;2023-04-01T07:40:26;28.1;;;20.3;;
33912;SDS011;20200;52.084;5.224;2023-04-01T07:42:16;28.3;;;21.2;;
33912;SDS011;20200;52.084;5.224;2023-04-01T07:44:02;30.8;;;21.7;;
33912;SDS011;20200;52.084;5.224;2023-04-01T07:45:54;26.8;;;20.11;;
33912;SDS011;20200;52.084;5.224;2023-04-01T07:47:41;29.3;;;20.6;;
33912;SDS011;20200;52.084;5.224;2023-04-01T07:49:34;27.4;;;19.61;;
33912;SDS011;20200;52.084;5.224;2023-04-01T07:51:21;27.6;;;20.2;;
33912;SDS011;20200;52.084;5.224;2023-04-01T07:54:53;30.7;;;21.2;;
33912;SDS011;20200;52.084;5.224;2023-04-01T07:56:38;29.6;;;20.6;;
33912;SDS011;20200;52.084;5.224;2023-04-01T07:58:23;25.4;;;19.41;;
33912;SDS011;20200;52.084;5.224;2023-04-01T08:00:10;26.5;;;19.3;;
33912;SDS011;20200;52.084;5.224;2023-04-01T08:01:55;24.8;;;19.5;;
33912;SDS011;20200;52.084;5.224;2023-04-01T08:03:51;25.7;;;19.3;;
33912;SDS011;20200;52.084;5.224;2023-04-01T08:07:33;26.5;;;19.3;;
33912;SDS011;20200;52.084;5.224;2023-04-01T08:09:18;28.6;;;20.11;;
33912;SDS011;20200;52.084;5.224;2023-04-01T08:11:07;29.3;;;20.2;;
33912;SDS011;20200;52.084;5.224;2023-04-01T08:12:59;27.3;;;19.8;;
33912;SDS011;20200;52.084;5.224;2023-04-01T08:14:48;28.6;;;20.7;;
33912;SDS011;20200;52.084;5.224;2023-04-01T08:16:32;30.6;;;21.2;;
33912;SDS011;20200;52.084;5.224;2023-04-01T08:20:11;32.4;;;21.8;;
33912;SDS011;20200;52.084;5.224;2023-04-01T08:21:57;29.1;;;20.5;;
33912;SDS011;20200;52.084;5.224;2023-04-01T08:23:40;29.6;;;22.0;;
33912;SDS011;20200;52.084;5.224;2023-04-01T08:25:20;29.8;;;21.2;;
33912;SDS011;20200;52.084;5.224;2023-04-01T08:27:01;29.5;;;21.6;;
33912;SDS011;20200;52.084;5.224;2023-04-01T08:30:30;28.5;;;20.6;;
33912;SDS011;20200;52.084;5.224;2023-04-01T08:32:17;30.2;;;21.4;;
33912;SDS011;20200;52.084;5.224;2023-04-01T08:33:59;30.0;;;21.8;;
33912;SDS011;20200;52.084;5.224;2023-04-01T08:35:40;30.9;;;22.2;;
33912;SDS011;20200;52.084;5.224;2023-04-01T08:37:26;30.9;;;21.9;;
33912;SDS011;20200;52.084;5.224;2023-04-01T08:40:53;32.5;;;22.5;;
33912;SDS011;20200;52.084;5.224;2023-04-01T08:44:51;37.0;;;24.3;;
33912;SDS011;20200;52.084;5.224;2023-04-01T08:51:16;37.31;;;25.7;;
33912;SDS011;20200;52.084;5.224;2023-04-01T08:54:38;40.71;;;27.5;;
33912;SDS011;20200;52.084;5.224;2023-04-01T08:57:25;42.0;;;26.6;;
33912;SDS011;20200;52.084;5.224;2023-04-01T08:59:27;43.4;;;28.6;;
33912;SDS011;20200;52.084;5.224;2023-04-01T09:01:32;44.1;;;28.5;;
33912;SDS011;20200;52.084;5.224;2023-04-01T09:04:40;42.2;;;28.0;;
33912;SDS011;20200;52.084;5.224;2023-04-01T09:06:37;39.5;;;27.3;;
33912;SDS011;20200;52.084;5.224;2023-04-01T09:10:24;45.7;;;28.2;;
33912;SDS011;20200;52.084;5.224;2023-04-01T09:13:05;41.8;;;27.3;;
33912;SDS011;20200;52.084;5.224;2023-04-01T09:15:30;43.9;;;27.9;;
33912;SDS011;20200;52.084;5.224;2023-04-01T09:18:48;38.9;;;26.0;;
33912;SDS011;20200;52.084;5.224;2023-04-01T09:21:41;41.0;;;26.2;;
33912;SDS011;20200;52.084;5.224;2023-04-01T09:23:48;37.1;;;25.4;;
33912;SDS011;20200;52.084;5.224;2023-04-01T09:26:13;36.5;;;25.2;;
33912;SDS011;20200;52.084;5.224;2023-04-01T09:28:06;36.6;;;23.1;;
33912;SDS011;20200;52.084;5.224;2023-04-01T09:30:27;36.31;;;23.7;;
33912;SDS011;20200;52.084;5.224;2023-04-01T09:32:23;35.71;;;22.8;;
33912;SDS011;20200;52.084;5.224;2023-04-01T09:36:02;39.0;;;25.0;;
33912;SDS011;20200;52.084;5.224;2023-04-01T09:39:36;34.1;;;22.2;;
33912;SDS011;20200;52.084;5.224;2023-04-01T09:41:20;29.9;;;20.9;;
33912;SDS011;20200;52.084;5.224;2023-04-01T09:43:06;32.9;;;22.3;;
33912;SDS011;20200;52.084;5.224;2023-04-01T09:45:05;32.3;;;21.3;;
33912;SDS011;20200;52.084;5.224;2023-04-01T09:46:56;30.3;;;20.5;;
33912;SDS011;20200;52.084;5.224;2023-04-01T09:48:51;29.3;;;19.7;;
33912;SDS011;20200;52.084;5.224;2023-04-01T09:52:18;27.6;;;19.5;;
33912;SDS011;20200;52.084;5.224;2023-04-01T09:54:09;25.7;;;18.3;;
33912;SDS011;20200;52.084;5.224;2023-04-01T09:56:12;30.4;;;19.8;;
33912;SDS011;20200;52.084;5.224;2023-04-01T09:59:20;25.6;;;17.8;;
33912;SDS011;20200;52.084;5.224;2023-04-01T10:01:25;27.5;;;19.0;;
33912;SDS011;20200;52.084;5.224;2023-04-01T10:16:47;29.0;;;20.0;;
33912;SDS011;20200;52.084;5.224;2023-04-01T10:20:25;16.7;;;12.8;;
33912;SDS011;20200;52.084;5.224;2023-04-01T10:26:10;15.7;;;12.4;;
33912;SDS011;20200;52.084;5.224;2023-04-01T10:29:36;14.2;;;11.6;;
33912;SDS011;20200;52.084;5.224;2023-04-01T10:32:54;10.5;;;9.21;;
33912;SDS011;20200;52.084;5.224;2023-04-01T10:45:25;13.8;;;11.5;;
33912;SDS011;20200;52.084;5.224;2023-04-01T10:49:02;13.6;;;12.0;;
33912;SDS011;20200;52.084;5.224;2023-04-01T10:52:01;13.4;;;11.0;;
33912;SDS011;20200;52.084;5.224;2023-04-01T10:55:59;11.9;;;10.4;;
33912;SDS011;20200;52.084;5.224;2023-04-01T10:59:02;11.7;;;10.5;;
33912;SDS011;20200;52.084;5.224;2023-04-01T11:04:34;11.2;;;9.71;;
33912;SDS011;20200;52.084;5.224;2023-04-01T11:06:19;13.1;;;11.7;;
33912;SDS011;20200;52.084;5.224;2023-04-01T11:07:19;13.1;;;11.7;;
33912;SDS011;20200;52.084;5.224;2023-04-01T11:12:18;12.9;;;11.6;;
33912;SDS011;20200;52.084;5.224;2023-04-01T11:13:21;12.9;;;11.6;;
33912;SDS011;20200;52.084;5.224;2023-04-01T11:14:19;15.0;;;12.6;;
33912;SDS011;20200;52.084;5.224;2023-04-01T11:15:31;15.0;;;12.6;;
33912;SDS011;20200;52.084;5.224;2023-04-01T11:16:25;17.3;;;13.6;;
33912;SDS011;20200;52.084;5.224;2023-04-01T11:18:18;17.3;;;13.6;;
33912;SDS011;20200;52.084;5.224;2023-04-01T11:19:33;14.8;;;12.6;;
33912;SDS011;20200;52.084;5.224;2023-04-01T11:20:25;14.8;;;12.6;;
33912;SDS011;20200;52.084;5.224;2023-04-01T11:21:19;15.4;;;13.0;;
33912;SDS011;20200;52.084;5.224;2023-04-01T11:23:19;13.8;;;11.9;;
33912;SDS011;20200;52.084;5.224;2023-04-01T11:25:34;13.7;;;11.8;;
33912;SDS011;20200;52.084;5.224;2023-04-01T11:27:57;12.7;;;11.3;;
33912;SDS011;20200;52.084;5.224;2023-04-01T11:30:16;10.3;;;9.0;;
33912;SDS011;20200;52.084;5.224;2023-04-01T11:32:05;10.21;;;9.21;;
33912;SDS011;20200;52.084;5.224;2023-04-01T11:33:55;10.21;;;9.0;;
33912;SDS011;20200;52.084;5.224;2023-04-01T11:35:46;9.81;;;8.81;;
33912;SDS011;20200;52.084;5.224;2023-04-01T11:38:03;9.31;;;8.1;;
33912;SDS011;20200;52.084;5.224;2023-04-01T11:39:57;9.1;;;7.8;;
33912;SDS011;20200;52.084;5.224;2023-04-01T11:41:45;10.21;;;8.2;;
33912;SDS011;20200;52.084;5.224;2023-04-01T11:43:29;10.0;;;8.71;;
33912;SDS011;20200;52.084;5.224;2023-04-01T11:47:19;10.1;;;8.31;;
33912;SDS011;20200;52.084;5.224;2023-04-01T11:49:36;8.9;;;7.4;;
33912;SDS011;20200;52.084;5.224;2023-04-01T11:51:31;8.31;;;7.5;;
33912;SDS011;20200;52.084;5.224;2023-04-01T11:54:03;9.31;;;8.2;;
33912;SDS011;20200;52.084;5.224;2023-04-01T11:57:50;8.81;;;7.9;;
33912;SDS011;20200;52.084;5.224;2023-04-01T11:59:47;8.81;;;7.8;;
33912;SDS011;20200;52.084;5.224;2023-04-01T12:01:43;8.5;;;7.6;;
33912;SDS011;20200;52.084;5.224;2023-04-01T12:03:35;10.0;;;7.6;;
33912;SDS011;20200;52.084;5.224;2023-04-01T12:06:00;8.6;;;7.7;;
33912;SDS011;20200;52.084;5.224;2023-04-01T12:07:50;9.0;;;8.1;;
33912;SDS011;20200;52.084;5.224;2023-04-01T12:09:39;9.1;;;8.1;;
33912;SDS011;20200;52.084;5.224;2023-04-01T12:11:26;8.71;;;7.9;;
33912;SDS011;20200;52.084;5.224;2023-04-01T12:13:14;9.5;;;8.6;;
33912;SDS011;20200;52.084;5.224;2023-04-01T12:15:03;10.21;;;9.31;;
33912;SDS011;20200;52.084;5.224;2023-04-01T12:16:55;11.7;;;10.3;;
33912;SDS011;20200;52.084;5.224;2023-04-01T12:20:26;11.1;;;10.0;;
33912;SDS011;20200;52.084;5.224;2023-04-01T12:22:19;11.2;;;10.21;;
33912;SDS011;20200;52.084;5.224;2023-04-01T12:24:35;12.7;;;11.5;;
33912;SDS011;20200;52.084;5.224;2023-04-01T12:26:41;12.4;;;11.2;;
33912;SDS011;20200;52.084;5.224;2023-04-01T12:29:07;13.2;;;11.9;;
33912;SDS011;20200;52.084;5.224;2023-04-01T12:31:01;13.7;;;12.4;;
33912;SDS011;20200;52.084;5.224;2023-04-01T12:32:53;14.5;;;13.1;;
33912;SDS011;20200;52.084;5.224;2023-04-01T12:34:44;14.8;;;13.3;;
33912;SDS011;20200;52.084;5.224;2023-04-01T12:36:40;14.6;;;13.2;;
33912;SDS011;20200;52.084;5.224;2023-04-01T12:38:30;15.3;;;13.8;;
33912;SDS011;20200;52.084;5.224;2023-04-01T12:40:38;16.11;;;14.5;;
33912;SDS011;20200;52.084;5.224;2023-04-01T12:43:10;15.3;;;13.8;;
33912;SDS011;20200;52.084;5.224;2023-04-01T12:45:13;15.6;;;14.1;;
33912;SDS011;20200;52.084;5.224;2023-04-01T12:47:34;15.9;;;14.3;;
33912;SDS011;20200;52.084;5.224;2023-04-01T12:51:09;17.41;;;15.7;;
33912;SDS011;20200;52.084;5.224;2023-04-01T12:54:13;14.4;;;12.9;;
33912;SDS011;20200;52.084;5.224;2023-04-01T12:57:53;16.0;;;14.3;;
33912;SDS011;20200;52.084;5.224;2023-04-01T13:01:35;18.61;;;15.9;;
33912;SDS011;20200;52.084;5.224;2023-04-01T13:03:46;18.5;;;16.61;;
33912;SDS011;20200;52.084;5.224;2023-04-01T13:06:02;19.61;;;17.5;;
33912;SDS011;20200;52.084;5.224;2023-04-01T13:09:21;21.0;;;18.5;;
33912;SDS011;20200;52.084;5.224;2023-04-01T13:13:02;20.3;;;17.11;;
33912;SDS011;20200;52.084;5.224;2023-04-01T13:15:14;21.2;;;18.5;;
33912;SDS011;20200;52.084;5.224;2023-04-01T13:17:13;21.2;;;18.41;;
33912;SDS011;20200;52.084;5.224;2023-04-01T13:18:59;23.1;;;19.91;;
33912;SDS011;20200;52.084;5.224;2023-04-01T13:20:43;21.4;;;19.11;;
33912;SDS011;20200;52.084;5.224;2023-04-01T13:22:26;20.3;;;18.11;;
33912;SDS011;20200;52.084;5.224;2023-04-01T13:24:25;23.3;;;18.8;;
33912;SDS011;20200;52.084;5.224;2023-04-01T13:26:15;21.7;;;19.3;;
33912;SDS011;20200;52.084;5.224;2023-04-01T13:29:45;18.61;;;16.7;;
33912;SDS011;20200;52.084;5.224;2023-04-01T13:31:50;17.41;;;15.6;;
33912;SDS011;20200;52.084;5.224;2023-04-01T13:33:42;16.0;;;14.2;;
33912;SDS011;20200;52.084;5.224;2023-04-01T13:35:29;16.0;;;14.4;;
33912;SDS011;20200;52.084;5.224;2023-04-01T13:37:18;15.4;;;13.7;;
33912;SDS011;20200;52.084;5.224;2023-04-01T13:39:14;14.6;;;12.3;;
33912;SDS011;20200;52.084;5.224;2023-04-01T13:41:10;14.7;;;12.9;;
33912;SDS011;20200;52.084;5.224;2023-04-01T13:42:58;13.7;;;12.2;;